Pittsfield, IL

10:27 AM CDT on April 24, 2017 (GMT -0500)
Pittsfield Penstone Municipal

Weather History for KPPQ - January, 2011

Change the Weather History Date:

Sunday, January 30, 2011

  Actual Average (KUIN) Record (KUIN)
Temperature  
Mean Temperature 28 °F -  
Max Temperature 30 °F 33 °F 64 °F (2012)
Min Temperature 26 °F 17 °F -13 °F (1965)
Degree Days  
Heating Degree Days 37    
Moisture  
Dew Point 28 °F    
Average Humidity 95    
Maximum Humidity 100    
Minimum Humidity 86    
Precipitation  
Precipitation 0.00 in - - ()
Sea Level Pressure  
Sea Level Pressure 30.19 in    
Wind  
Wind Speed 6 mph (North)    
Max Wind Speed 12 mph    
Max Gust Speed -    
Visibility 4 miles    
Events Fog    
Averages and records for this station are not official NWS values.
T = Trace of Precipitation, MM = Missing Value Source: NWS Daily Summary

Daily Weather History Graph

Daily Weather History Graph

Search for Another Location

Airport or City:

Trip Planner

Search our weather history database for the weather conditions in past years. The results will help you decide how hot, cold, wet, or windy it might be!

Date:

Astronomy

Jan. 30, 2011 Rise Set
Actual Time 7:12 AM CST 5:20 PM CST
Civil Twilight 6:44 AM CST 5:49 PM CST
Nautical Twilight 6:11 AM CST 6:21 PM CST
Astronomical Twilight 5:40 AM CST 6:53 PM CST
Moon 4:44 AM CST (1/30) 2:14 PM CST (1/30)
Length of Visible Light 11h 04m
Length of Day
10h 07m
Waning Crescent, 11% of the Moon is Illuminated
Jan 30
Waning Crescent
Feb 2
New
Feb 11
First Quarter
Feb 18
Full
Feb 24
Last Quarter

Hourly Weather History & Observations

Time (CST) Temp. Windchill Dew Point Humidity Pressure Visibility Wind Dir Wind Speed Gust Speed Precip Events Conditions
12:06 AM 30.2 °F 26.7 °F 28.4 °F 93% 30.06 in 7.0 mi NNE 3.5 mph - N/A   Clear
12:26 AM 28.4 °F 22.2 °F 28.4 °F 100% 30.06 in 7.0 mi North 5.8 mph - N/A   Clear
12:46 AM 28.4 °F 22.2 °F 28.4 °F 100% 30.06 in 7.0 mi North 5.8 mph - N/A   Clear
1:06 AM 28.4 °F 23.3 °F 28.4 °F 100% 30.06 in 5.0 mi NE 4.6 mph - N/A   Clear
1:26 AM 28.4 °F 24.6 °F 28.4 °F 100% 30.06 in 5.0 mi North 3.5 mph - N/A   Clear
1:46 AM 28.4 °F 22.2 °F 26.6 °F 93% 30.07 in 4.0 mi North 5.8 mph - N/A   Clear
2:06 AM 28.4 °F 23.3 °F 26.6 °F 93% 30.08 in 4.0 mi North 4.6 mph - N/A   Clear
2:26 AM 26.6 °F 20.0 °F 26.6 °F 100% 30.09 in 4.0 mi North 5.8 mph - N/A   Clear
2:46 AM 26.6 °F 21.2 °F 26.6 °F 100% 30.09 in 4.0 mi North 4.6 mph - N/A   Clear
3:07 AM 26.6 °F 21.2 °F 26.6 °F 100% 30.09 in 4.0 mi North 4.6 mph - N/A   Clear
3:26 AM 26.6 °F 21.2 °F 26.6 °F 100% 30.09 in 3.0 mi North 4.6 mph - N/A   Clear
3:46 AM 26.6 °F 19.1 °F 26.6 °F 100% 30.10 in 4.0 mi North 6.9 mph - N/A   Clear
4:06 AM 26.6 °F 18.2 °F 26.6 °F 100% 30.11 in 4.0 mi North 8.1 mph - N/A   Clear
4:26 AM 26.6 °F 18.2 °F 26.6 °F 100% 30.12 in 4.0 mi North 8.1 mph - N/A   Clear
4:46 AM 26.6 °F 16.2 °F 26.6 °F 100% 30.13 in 4.0 mi North 11.5 mph - N/A   Scattered Clouds
5:06 AM 26.6 °F 16.2 °F 26.6 °F 100% 30.13 in 1.0 mi North 11.5 mph - N/A   Overcast
5:26 AM 26.6 °F 16.2 °F 26.6 °F 100% 30.14 in 0.8 mi North 11.5 mph - N/A   Overcast
5:46 AM 28.4 °F 19.7 °F 28.4 °F 100% 30.15 in 0.8 mi North 9.2 mph - N/A   Overcast
6:06 AM 28.4 °F 20.4 °F 28.4 °F 100% 30.16 in 0.8 mi North 8.1 mph - N/A   Overcast
6:26 AM 28.4 °F 22.2 °F 28.4 °F 100% 30.17 in 1.2 mi NNE 5.8 mph - N/A   Overcast
6:46 AM 28.4 °F 24.6 °F 28.4 °F 100% 30.18 in 1.0 mi NNE 3.5 mph - N/A   Overcast
7:06 AM 28.4 °F 23.3 °F 28.4 °F 100% 30.18 in 1.2 mi North 4.6 mph - N/A   Overcast
7:27 AM 28.4 °F 24.6 °F 28.4 °F 100% 30.20 in 0.5 mi North 3.5 mph - N/A Fog Light Freezing Fog
7:46 AM 28.4 °F 22.2 °F 28.4 °F 100% 30.20 in 0.2 mi North 5.8 mph - N/A Fog Light Freezing Fog
8:06 AM 28.4 °F 19.7 °F 28.4 °F 100% 30.20 in 0.5 mi NNW 9.2 mph - N/A Fog Light Freezing Fog
8:26 AM 28.4 °F 20.4 °F 28.4 °F 100% 30.21 in 0.5 mi North 8.1 mph - N/A Fog Light Freezing Fog
8:46 AM 28.4 °F 21.2 °F 28.4 °F 100% 30.21 in 0.8 mi North 6.9 mph - N/A   Overcast
9:06 AM 28.4 °F 21.2 °F 28.4 °F 100% 30.22 in 1.2 mi North 6.9 mph - N/A   Overcast
9:26 AM 28.4 °F 21.2 °F 28.4 °F 100% 30.23 in 2.0 mi North 6.9 mph - N/A   Overcast
9:46 AM 30.2 °F 24.3 °F 30.2 °F 100% 30.23 in 3.0 mi NNE 5.8 mph - N/A   Overcast
10:06 AM 30.2 °F 24.3 °F 30.2 °F 100% 30.23 in 4.0 mi NNE 5.8 mph - N/A   Overcast
10:26 AM 30.2 °F 23.4 °F 28.4 °F 93% 30.24 in 5.0 mi NNE 6.9 mph - N/A   Overcast
10:46 AM 30.2 °F 23.4 °F 28.4 °F 93% 30.25 in 5.0 mi North 6.9 mph - N/A   Overcast
11:06 AM 30.2 °F 24.3 °F 28.4 °F 93% 30.25 in 4.0 mi North 5.8 mph - N/A   Overcast
11:26 AM 30.2 °F 25.4 °F 28.4 °F 93% 30.25 in 4.0 mi North 4.6 mph - N/A   Overcast
11:47 AM 30.2 °F 23.4 °F 28.4 °F 93% 30.25 in 4.0 mi NNW 6.9 mph - N/A   Overcast
12:06 PM 28.4 °F 20.4 °F 26.6 °F 93% 30.25 in 4.0 mi North 8.1 mph - N/A   Overcast
12:26 PM 28.4 °F 19.7 °F 26.6 °F 93% 30.24 in 4.0 mi North 9.2 mph - N/A   Overcast
12:47 PM 28.4 °F 19.7 °F 26.6 °F 93% 30.24 in 5.0 mi North 9.2 mph - N/A   Overcast
1:06 PM 28.4 °F 21.2 °F 26.6 °F 93% 30.24 in 5.0 mi NNW 6.9 mph - N/A   Overcast
1:26 PM 30.2 °F 22.6 °F 26.6 °F 86% 30.24 in 5.0 mi North 8.1 mph - N/A   Overcast
1:46 PM 30.2 °F 21.3 °F 26.6 °F 86% 30.23 in 5.0 mi NNW 10.4 mph - N/A   Overcast
2:06 PM 30.2 °F 22.6 °F 26.6 °F 86% 30.24 in 5.0 mi NNE 8.1 mph - N/A   Haze
2:26 PM 30.2 °F 24.3 °F 26.6 °F 86% 30.24 in 5.0 mi North 5.8 mph - N/A   Overcast
2:46 PM 30.2 °F 24.3 °F 26.6 °F 86% 30.25 in 5.0 mi North 5.8 mph - N/A   Overcast
3:06 PM 30.2 °F 22.6 °F 26.6 °F 86% 30.25 in 5.0 mi North 8.1 mph - N/A   Overcast
3:27 PM 30.2 °F 23.4 °F 26.6 °F 86% 30.25 in 4.0 mi North 6.9 mph - N/A   Overcast
3:46 PM 30.2 °F 23.4 °F 26.6 °F 86% 30.25 in 5.0 mi North 6.9 mph - N/A   Overcast
4:06 PM 30.2 °F 22.6 °F 28.4 °F 93% 30.25 in 5.0 mi North 8.1 mph - N/A   Overcast
4:26 PM 30.2 °F 25.4 °F 28.4 °F 93% 30.25 in 4.0 mi NE 4.6 mph - N/A   Overcast
4:46 PM 30.2 °F 24.3 °F 28.4 °F 93% 30.26 in 4.0 mi NNE 5.8 mph - N/A   Overcast
5:06 PM 30.2 °F 23.4 °F 28.4 °F 93% 30.25 in 4.0 mi NNE 6.9 mph - N/A   Overcast
5:26 PM 30.2 °F 22.6 °F 28.4 °F 93% 30.25 in 4.0 mi NE 8.1 mph - N/A   Overcast
5:46 PM 30.2 °F 23.4 °F 28.4 °F 93% 30.26 in 5.0 mi NE 6.9 mph - N/A   Overcast
6:06 PM 30.2 °F 23.4 °F 28.4 °F 93% 30.26 in 4.0 mi NNE 6.9 mph - N/A   Overcast
6:26 PM 30.2 °F 23.4 °F 28.4 °F 93% 30.27 in 4.0 mi NNE 6.9 mph - N/A   Overcast
6:46 PM 30.2 °F 25.4 °F 28.4 °F 93% 30.27 in 4.0 mi NNE 4.6 mph - N/A   Overcast
7:06 PM 30.2 °F 24.3 °F 28.4 °F 93% 30.27 in 4.0 mi NE 5.8 mph - N/A   Overcast
7:26 PM 30.2 °F 23.4 °F 28.4 °F 93% 30.27 in 4.0 mi NNE 6.9 mph - N/A   Overcast
7:46 PM 30.2 °F 25.4 °F 30.2 °F 100% 30.28 in 3.0 mi NE 4.6 mph - N/A   Overcast
8:06 PM 30.2 °F 25.4 °F 30.2 °F 100% 30.28 in 3.0 mi NE 4.6 mph - N/A   Overcast
8:26 PM 30.2 °F 24.3 °F 30.2 °F 100% 30.29 in 3.0 mi NE 5.8 mph - N/A   Overcast
8:46 PM 30.2 °F 23.4 °F 30.2 °F 100% 30.28 in 3.0 mi NE 6.9 mph - N/A   Overcast
9:06 PM 30.2 °F 23.4 °F 30.2 °F 100% 30.28 in 3.0 mi ENE 6.9 mph - N/A   Overcast
9:26 PM 30.2 °F 22.6 °F 30.2 °F 100% 30.27 in 4.0 mi NE 8.1 mph - N/A   Overcast
9:46 PM 32.0 °F 24.8 °F 30.2 °F 93% 30.28 in 5.0 mi ENE 8.1 mph - N/A   Overcast
10:06 PM 32.0 °F 22.5 °F 30.2 °F 93% 30.28 in 7.0 mi ENE 12.7 mph 19.6 mph N/A   Overcast
10:26 PM 32.0 °F 22.5 °F 28.4 °F 87% 30.27 in 7.0 mi ENE 12.7 mph 19.6 mph N/A   Overcast
10:46 PM 32.0 °F 22.1 °F 28.4 °F 87% 30.28 in 7.0 mi ENE 13.8 mph 20.7 mph N/A   Overcast
11:06 PM 32.0 °F 23.6 °F 28.4 °F 87% 30.29 in 7.0 mi ENE 10.4 mph - N/A   Overcast
11:27 PM 30.2 °F 20.2 °F 28.4 °F 93% 30.28 in 7.0 mi East 12.7 mph 20.7 mph N/A   Overcast
11:46 PM 30.2 °F 20.2 °F 26.6 °F 86% 30.28 in 7.0 mi ENE 12.7 mph 18.4 mph N/A   Mostly Cloudy